Hoberg, Missouri
Current Conditions -  °F | °C
As of 8:30 AM on Thursday 23 Oct 2014 (Local Time) from KHFJ Reporting Station
Overcast Overcast  
Wind Chill: 54°   Ceiling: 10000
Heat Index: 54°   Visibility: 10mi
Dew Point: 50°   Wind: 5mph
Humidity: 88%   Direction: 140°SE
Pressure: 30.17"   Gusts: NA
Location:  37.1099°N, 93.7778°W
Report Text: KHFJ 231330Z AUTO 14004KT 10SM SCT060 OVC100 12/10 A3017 RMK AO2
Loading
Personal Weather Stations






























Interactive Weather Map
Tropical Storm Tracking
New forecast layout! Learn more

10-Day Weather Forecast

Advertisements
Track Severe Weather on mobile